Lexington (LEX/KLEX)

Map

Destinations

Information

Location
Lexington, KY
Local Time
15:47 / 3:47 pm
GMT Time
19:47 / 7:47 pm
Gates
B2
No FAA reported delays
METAR KLEX 281854Z 00000KT 10SM FEW120 25/13 A2995 RMK AO2 SLP138 T02500128
TAF KLEX 281731Z 2818/2918 17010KT P6SM SCT040 BKN250 FM282100 17013G20KT P6SM VCTS SCT035CB BKN120 FM290000 18014G22KT P6SM BKN050 FM291100 19012KT P6SM SCT030 BKN120